createdAt,value
2023-04-26T00:04:02.629Z,14.30
2023-04-26T00:08:59.497Z,14.36
2023-04-26T00:13:57.760Z,14.40
2023-04-26T00:18:56.086Z,14.26
2023-04-26T00:23:52.923Z,14.17
2023-04-26T00:28:49.825Z,14.18
2023-04-26T00:33:47.449Z,14.18
2023-04-26T00:38:44.235Z,14.30
2023-04-26T00:43:40.913Z,14.32
2023-04-26T00:48:38.070Z,14.40
2023-04-26T00:53:35.954Z,14.28
2023-04-26T00:58:32.549Z,14.36
2023-04-26T01:03:30.020Z,14.35
2023-04-26T01:08:28.792Z,14.15
2023-04-26T01:13:28.648Z,14.25
2023-04-26T01:18:25.410Z,14.37
2023-04-26T01:23:22.786Z,14.30
2023-04-26T01:28:19.515Z,14.28
2023-04-26T01:33:16.627Z,14.37
2023-04-26T01:38:15.753Z,14.20
2023-04-26T01:43:15.275Z,14.17
2023-04-26T01:48:12.110Z,14.17
2023-04-26T01:53:08.788Z,14.08
2023-04-26T01:58:05.466Z,14.07
2023-04-26T02:03:03.975Z,14.00
2023-04-26T02:08:00.844Z,13.93
2023-04-26T02:13:00.124Z,13.90
2023-04-26T02:17:56.899Z,14.01
2023-04-26T02:22:54.167Z,13.78
2023-04-26T02:27:51.039Z,14.03
2023-04-26T02:32:47.817Z,13.92
2023-04-26T02:37:48.401Z,13.95
2023-04-26T02:42:45.766Z,14.00
2023-04-26T02:47:42.582Z,14.07
2023-04-26T02:52:39.235Z,14.09
2023-04-26T02:57:36.312Z,14.05
2023-04-26T03:02:33.772Z,13.97
2023-04-26T03:07:31.325Z,13.99
2023-04-26T03:12:27.956Z,14.04
2023-04-26T03:17:24.773Z,13.85
2023-04-26T03:22:22.351Z,13.79
2023-04-26T03:27:19.153Z,13.75
2023-04-26T03:32:16.207Z,13.57
2023-04-26T03:37:13.508Z,13.52
2023-04-26T03:42:13.288Z,13.31
2023-04-26T03:47:10.298Z,13.30
2023-04-26T03:52:07.076Z,13.59
2023-04-26T03:57:03.805Z,13.48
2023-04-26T04:02:01.486Z,13.50
2023-04-26T04:06:58.781Z,13.40
2023-04-26T04:11:55.604Z,13.67
2023-04-26T04:16:53.027Z,13.73
2023-04-26T04:21:51.199Z,13.74
2023-04-26T04:26:49.186Z,13.76
2023-04-26T04:31:45.882Z,13.85
2023-04-26T04:36:42.856Z,13.81
2023-04-26T04:41:47.168Z,13.86
2023-04-26T04:46:44.884Z,14.06
2023-04-26T04:51:41.944Z,13.82
2023-04-26T04:56:39.350Z,13.73
2023-04-26T05:01:38.026Z,13.63
2023-04-26T05:06:39.171Z,13.42
2023-04-26T05:11:36.416Z,13.37
2023-04-26T05:16:34.714Z,13.34
2023-04-26T05:21:33.806Z,13.43
2023-04-26T05:26:30.853Z,13.68
2023-04-26T05:31:48.225Z,13.69
2023-04-26T05:37:11.674Z,13.89
2023-04-26T05:42:10.881Z,13.96
2023-04-26T05:47:09.000Z,14.23
2023-04-26T05:52:06.026Z,14.09
2023-04-26T05:57:03.899Z,13.96
2023-04-26T06:02:03.358Z,14.06
2023-04-26T06:07:00.939Z,14.01
2023-04-26T06:11:57.886Z,14.05
2023-04-26T06:16:58.452Z,14.15
2023-04-26T06:21:57.256Z,14.35
2023-04-26T06:26:54.737Z,14.28
2023-04-26T06:31:52.075Z,14.48
2023-04-26T06:36:54.221Z,14.66
2023-04-26T06:41:53.585Z,14.51
2023-04-26T06:47:10.796Z,14.73
2023-04-26T06:52:09.522Z,14.72
2023-04-26T06:57:06.709Z,14.90
2023-04-26T07:02:03.478Z,15.04
2023-04-26T07:07:00.687Z,15.17
2023-04-26T07:11:58.338Z,15.11
2023-04-26T07:16:55.058Z,15.26
2023-04-26T07:21:53.237Z,15.32
2023-04-26T07:26:50.363Z,15.36
2023-04-26T07:31:50.736Z,15.46
2023-04-26T07:36:47.812Z,15.49
2023-04-26T07:41:44.864Z,15.50
2023-04-26T07:46:43.283Z,15.55
2023-04-26T07:51:43.793Z,15.68
2023-04-26T07:56:41.140Z,15.86
2023-04-26T08:01:40.420Z,15.85
2023-04-26T08:06:38.572Z,16.10
2023-04-26T08:11:35.953Z,16.16
2023-04-26T08:16:35.679Z,16.09
2023-04-26T08:21:32.629Z,16.19
2023-04-26T08:26:29.420Z,16.32
2023-04-26T08:31:27.281Z,16.17
2023-04-26T08:36:25.699Z,16.29
2023-04-26T08:41:37.301Z,16.52
2023-04-26T08:46:42.728Z,16.60
2023-04-26T08:51:42.357Z,16.67
2023-04-26T08:56:43.051Z,16.72
2023-04-26T09:01:44.151Z,17.00
2023-04-26T09:06:43.358Z,16.75
2023-04-26T09:11:57.879Z,16.71
2023-04-26T09:16:58.315Z,17.12
2023-04-26T09:21:55.644Z,17.36
2023-04-26T09:27:03.188Z,17.27
2023-04-26T09:32:03.302Z,17.26
2023-04-26T09:37:00.919Z,17.53
2023-04-26T09:41:57.809Z,17.47
2023-04-26T09:47:01.698Z,17.65
2023-04-26T09:52:05.976Z,17.61
2023-04-26T09:57:05.097Z,17.48
2023-04-26T10:02:03.972Z,17.82
2023-04-26T10:07:04.085Z,17.71
2023-04-26T10:12:05.495Z,17.89
2023-04-26T10:17:08.006Z,17.93
2023-04-26T10:22:09.862Z,18.14
2023-04-26T10:27:08.168Z,17.99
2023-04-26T10:32:12.442Z,18.28
2023-04-26T10:37:13.485Z,18.29
2023-04-26T10:42:27.086Z,18.31
2023-04-26T10:47:33.083Z,18.12
2023-04-26T10:52:43.560Z,18.42
2023-04-26T10:57:53.292Z,18.65
2023-04-26T11:03:15.057Z,18.86
2023-04-26T11:08:18.231Z,18.82
2023-04-26T11:13:19.047Z,18.95
2023-04-26T11:18:49.574Z,18.97
2023-04-26T11:23:53.696Z,19.16
2023-04-26T11:28:51.644Z,19.19
2023-04-26T11:33:50.807Z,19.25
2023-04-26T11:38:52.311Z,19.15
2023-04-26T11:43:52.394Z,19.49
2023-04-26T11:48:49.618Z,19.18
2023-04-26T11:53:47.257Z,19.04
2023-04-26T11:58:45.027Z,19.20
2023-04-26T12:03:43.177Z,19.33
2023-04-26T12:08:42.493Z,19.37
2023-04-26T12:13:39.693Z,19.30
2023-04-26T12:18:36.963Z,19.26
2023-04-26T12:23:47.346Z,19.38
2023-04-26T12:28:44.708Z,19.52
2023-04-26T12:33:41.716Z,19.64
2023-04-26T12:38:38.916Z,19.76
2023-04-26T12:43:36.860Z,19.87
2023-04-26T12:48:35.312Z,19.87
2023-04-26T12:53:32.392Z,19.89
2023-04-26T12:58:29.285Z,20.01
2023-04-26T13:03:27.368Z,19.99
2023-04-26T13:08:24.943Z,19.66
2023-04-26T13:13:26.308Z,19.84
2023-04-26T13:18:30.251Z,19.96
2023-04-26T13:23:30.254Z,20.11
2023-04-26T13:28:27.253Z,20.10
2023-04-26T13:33:24.173Z,20.02
2023-04-26T13:38:21.749Z,20.18
2023-04-26T13:43:18.743Z,20.05
2023-04-26T13:48:15.939Z,20.14
2023-04-26T13:53:13.208Z,20.09
2023-04-26T13:58:11.015Z,20.12
2023-04-26T14:03:07.968Z,20.17
2023-04-26T14:08:05.537Z,20.18
2023-04-26T14:13:02.487Z,20.27
2023-04-26T14:18:00.189Z,20.42
2023-04-26T14:22:57.089Z,20.58
2023-04-26T14:27:53.911Z,20.38
2023-04-26T14:32:50.790Z,20.43
2023-04-26T14:37:48.448Z,20.44
2023-04-26T14:42:45.490Z,20.46
2023-04-26T14:47:42.428Z,20.40
2023-04-26T14:52:39.656Z,20.29
2023-04-26T14:57:40.103Z,19.99
2023-04-26T15:02:37.032Z,18.95
2023-04-26T15:07:33.896Z,17.48
2023-04-26T15:12:30.893Z,16.62
2023-04-26T15:17:30.409Z,16.16
2023-04-26T15:22:27.162Z,16.31
2023-04-26T15:27:24.528Z,15.92
2023-04-26T15:32:24.232Z,15.62
2023-04-26T15:37:21.783Z,15.59
2023-04-26T15:42:18.765Z,15.16
2023-04-26T15:47:15.343Z,15.23
2023-04-26T15:52:12.182Z,15.77
2023-04-26T15:57:09.605Z,15.64
2023-04-26T16:02:06.725Z,16.29
2023-04-26T16:07:03.874Z,16.71
2023-04-26T16:12:00.741Z,16.62
2023-04-26T16:16:59.655Z,16.89
2023-04-26T16:21:56.535Z,17.19
2023-04-26T16:26:55.909Z,16.85
2023-04-26T16:31:52.849Z,16.53
2023-04-26T16:36:50.437Z,16.12
2023-04-26T16:41:47.203Z,16.13
2023-04-26T16:46:44.521Z,15.82
2023-04-26T16:51:43.691Z,15.69
2023-04-26T16:56:41.054Z,15.55
2023-04-26T17:01:37.647Z,15.40
2023-04-26T17:06:34.300Z,15.51
2023-04-26T17:11:30.836Z,15.66
2023-04-26T17:16:28.328Z,15.51
2023-04-26T17:21:25.306Z,15.69
2023-04-26T17:26:22.438Z,15.35
2023-04-26T17:31:19.449Z,15.40
2023-04-26T17:36:17.203Z,15.11
2023-04-26T17:41:13.859Z,14.92
2023-04-26T17:46:12.856Z,14.91
2023-04-26T17:51:09.647Z,15.20
2023-04-26T17:56:09.506Z,15.38
2023-04-26T18:01:06.177Z,15.46
2023-04-26T18:06:02.956Z,15.11
2023-04-26T18:10:59.676Z,14.71
2023-04-26T18:15:57.044Z,14.75
2023-04-26T18:20:53.700Z,15.05
2023-04-26T18:25:50.668Z,15.25
2023-04-26T18:30:51.985Z,14.82
2023-04-26T18:35:49.712Z,14.58
2023-04-26T18:40:47.241Z,14.67
2023-04-26T18:45:44.052Z,14.51
2023-04-26T18:50:40.820Z,14.08
2023-04-26T18:55:38.267Z,13.59
2023-04-26T19:00:35.004Z,13.73
2023-04-26T19:05:31.579Z,13.65
2023-04-26T19:10:28.208Z,13.74
2023-04-26T19:15:25.777Z,13.66
2023-04-26T19:20:23.148Z,13.22
2023-04-26T19:25:22.671Z,12.93
2023-04-26T19:30:19.335Z,12.85
2023-04-26T19:35:16.913Z,13.10
2023-04-26T19:40:13.539Z,13.03
2023-04-26T19:45:10.708Z,12.92
2023-04-26T19:50:07.718Z,12.94
2023-04-26T19:55:05.623Z,13.10
2023-04-26T20:00:02.274Z,13.19
2023-04-26T20:05:04.557Z,12.65
2023-04-26T20:10:01.228Z,12.85
2023-04-26T20:14:58.790Z,12.82
2023-04-26T20:19:58.677Z,12.68
2023-04-26T20:24:55.184Z,12.62
2023-04-26T20:29:52.059Z,12.27
2023-04-26T20:34:56.357Z,12.21
2023-04-26T20:39:53.136Z,12.09
2023-04-26T20:44:52.367Z,12.14
2023-04-26T20:49:49.090Z,12.14
2023-04-26T20:54:46.597Z,12.27
2023-04-26T20:59:43.223Z,12.05
2023-04-26T21:04:42.192Z,12.27
2023-04-26T21:09:38.995Z,12.30
2023-04-26T21:14:36.308Z,12.13
2023-04-26T21:19:33.063Z,12.10
2023-04-26T21:24:29.807Z,12.16
2023-04-26T21:29:26.507Z,12.23
2023-04-26T21:34:23.929Z,12.27
2023-04-26T21:39:20.600Z,12.28
2023-04-26T21:44:17.335Z,12.64
2023-04-26T21:49:14.045Z,12.32
2023-04-26T21:54:11.359Z,12.40
2023-04-26T21:59:09.622Z,12.23
2023-04-26T22:04:06.401Z,12.13
2023-04-26T22:09:03.654Z,12.38
2023-04-26T22:14:00.913Z,11.86
2023-04-26T22:18:57.450Z,12.08
2023-04-26T22:23:54.177Z,12.11
2023-04-26T22:28:50.723Z,11.40
2023-04-26T22:33:48.473Z,11.73
2023-04-26T22:38:45.491Z,11.34
2023-04-26T22:43:43.390Z,11.26
2023-04-26T22:48:40.045Z,11.37
2023-04-26T22:53:37.432Z,11.41
2023-04-26T22:58:34.028Z,11.42
2023-04-26T23:03:30.989Z,11.65
2023-04-26T23:08:27.843Z,11.91
2023-04-26T23:13:25.743Z,11.66
2023-04-26T23:18:22.388Z,11.73
2023-04-26T23:23:19.043Z,11.26
2023-04-26T23:28:15.891Z,11.68
2023-04-26T23:33:13.198Z,11.71
2023-04-26T23:38:10.009Z,11.83
2023-04-26T23:43:06.866Z,11.92
2023-04-26T23:48:03.777Z,11.72
2023-04-26T23:53:01.204Z,11.73
2023-04-26T23:57:57.884Z,11.65
